sensor_id;sensor_type;location;lat;lon;timestamp;pressure;altitude;pressure_sealevel;temperature;humidity
18527;BME280;9393;42.158;24.748;2022-09-09T00:00:13;99746.75;;;23.22;55.04
18527;BME280;9393;42.158;24.748;2022-09-09T00:03:24;99746.75;;;22.97;55.19
18527;BME280;9393;42.158;24.748;2022-09-09T00:06:31;99745.78;;;22.92;54.84
18527;BME280;9393;42.158;24.748;2022-09-09T00:09:41;99756.56;;;23.22;54.92
18527;BME280;9393;42.158;24.748;2022-09-09T00:12:53;99755.50;;;23.04;55.67
18527;BME280;9393;42.158;24.748;2022-09-09T00:16:04;99758.47;;;22.90;nan
18527;BME280;9393;42.158;24.748;2022-09-09T00:19:20;99749.47;;;22.91;55.51
18527;BME280;9393;42.158;24.748;2022-09-09T00:22:27;99753.47;;;22.75;56.13
18527;BME280;9393;42.158;24.748;2022-09-09T00:25:35;99749.91;;;22.88;56.00
18527;BME280;9393;42.158;24.748;2022-09-09T00:28:46;99752.56;;;22.50;57.47
18527;BME280;9393;42.158;24.748;2022-09-09T00:31:54;99758.78;;;22.31;58.48
18527;BME280;9393;42.158;24.748;2022-09-09T00:35:10;99766.84;;;22.55;56.79
18527;BME280;9393;42.158;24.748;2022-09-09T00:38:23;99771.28;;;22.75;56.35
18527;BME280;9393;42.158;24.748;2022-09-09T00:41:37;99774.53;;;22.77;56.08
18527;BME280;9393;42.158;24.748;2022-09-09T00:44:52;99759.38;;;22.77;56.01
18527;BME280;9393;42.158;24.748;2022-09-09T00:47:56;99756.03;;;22.88;55.87
18527;BME280;9393;42.158;24.748;2022-09-09T00:51:04;99758.94;;;22.80;55.98
18527;BME280;9393;42.158;24.748;2022-09-09T00:57:39;99760.25;;;22.64;56.25
18527;BME280;9393;42.158;24.748;2022-09-09T01:00:44;99766.53;;;22.39;57.30
18527;BME280;9393;42.158;24.748;2022-09-09T01:03:53;99775.69;;;22.49;56.89
18527;BME280;9393;42.158;24.748;2022-09-09T01:07:03;99769.03;;;22.34;57.08
18527;BME280;9393;42.158;24.748;2022-09-09T01:10:16;99762.94;;;22.27;57.66
18527;BME280;9393;42.158;24.748;2022-09-09T01:13:26;99769.31;;;22.57;56.33
18527;BME280;9393;42.158;24.748;2022-09-09T01:16:34;99767.28;;;22.52;56.55
18527;BME280;9393;42.158;24.748;2022-09-09T01:19:52;99765.09;;;22.43;57.19
18527;BME280;9393;42.158;24.748;2022-09-09T01:23:23;99762.72;;;22.22;57.80
18527;BME280;9393;42.158;24.748;2022-09-09T01:27:06;99764.44;;;22.09;57.43
18527;BME280;9393;42.158;24.748;2022-09-09T01:30:11;99764.88;;;21.87;58.22
18527;BME280;9393;42.158;24.748;2022-09-09T01:33:18;99765.09;;;21.85;58.63
18527;BME280;9393;42.158;24.748;2022-09-09T01:36:29;99767.28;;;22.08;57.72
18527;BME280;9393;42.158;24.748;2022-09-09T01:39:38;99755.50;;;21.91;58.27
18527;BME280;9393;42.158;24.748;2022-09-09T01:42:46;99763.06;;;21.81;58.70
18527;BME280;9393;42.158;24.748;2022-09-09T01:45:53;99756.16;;;21.60;59.58
18527;BME280;9393;42.158;24.748;2022-09-09T01:48:58;99749.13;;;22.05;58.02
18527;BME280;9393;42.158;24.748;2022-09-09T01:52:03;99756.75;;;22.33;57.17
18527;BME280;9393;42.158;24.748;2022-09-09T01:55:11;99751.91;;;22.23;57.24
18527;BME280;9393;42.158;24.748;2022-09-09T01:58:28;99756.38;;;22.29;55.33
18527;BME280;9393;42.158;24.748;2022-09-09T02:01:47;99762.31;;;22.25;55.42
18527;BME280;9393;42.158;24.748;2022-09-09T02:04:59;99763.97;;;22.19;55.43
18527;BME280;9393;42.158;24.748;2022-09-09T02:08:08;99752.91;;;22.29;55.55
18527;BME280;9393;42.158;24.748;2022-09-09T02:11:24;99751.03;;;22.36;54.93
18527;BME280;9393;42.158;24.748;2022-09-09T02:14:51;99751.19;;;21.83;56.50
18527;BME280;9393;42.158;24.748;2022-09-09T02:18:01;99753.66;;;21.91;56.22
18527;BME280;9393;42.158;24.748;2022-09-09T02:21:11;99740.25;;;21.60;57.32
18527;BME280;9393;42.158;24.748;2022-09-09T02:24:16;99749.81;;;21.67;57.46
18527;BME280;9393;42.158;24.748;2022-09-09T02:27:27;99753.25;;;21.81;57.60
18527;BME280;9393;42.158;24.748;2022-09-09T02:30:33;99748.56;;;21.90;57.35
18527;BME280;9393;42.158;24.748;2022-09-09T02:33:41;99757.13;;;21.85;58.17
18527;BME280;9393;42.158;24.748;2022-09-09T02:36:48;99753.66;;;21.85;58.83
18527;BME280;9393;42.158;24.748;2022-09-09T02:39:52;99765.09;;;21.85;58.98
18527;BME280;9393;42.158;24.748;2022-09-09T02:42:56;99766.34;;;21.76;59.57
18527;BME280;9393;42.158;24.748;2022-09-09T02:46:12;99761.97;;;22.08;58.56
18527;BME280;9393;42.158;24.748;2022-09-09T02:49:27;99759.25;;;22.21;58.69
18527;BME280;9393;42.158;24.748;2022-09-09T02:52:45;99762.13;;;22.20;58.24
18527;BME280;9393;42.158;24.748;2022-09-09T02:55:54;99769.81;;;22.34;57.32
18527;BME280;9393;42.158;24.748;2022-09-09T02:59:03;99766.19;;;22.29;57.39
18527;BME280;9393;42.158;24.748;2022-09-09T03:02:10;99764.06;;;21.99;58.33
18527;BME280;9393;42.158;24.748;2022-09-09T03:05:15;99765.31;;;21.90;58.09
18527;BME280;9393;42.158;24.748;2022-09-09T03:08:19;99767.13;;;22.03;57.09
18527;BME280;9393;42.158;24.748;2022-09-09T03:11:22;99768.38;;;21.74;58.00
18527;BME280;9393;42.158;24.748;2022-09-09T03:14:26;99756.28;;;21.98;57.34
18527;BME280;9393;42.158;24.748;2022-09-09T03:17:31;99760.97;;;21.89;57.73
18527;BME280;9393;42.158;24.748;2022-09-09T03:20:34;99769.59;;;21.85;58.16
18527;BME280;9393;42.158;24.748;2022-09-09T03:23:38;99774.47;;;21.94;58.45
18527;BME280;9393;42.158;24.748;2022-09-09T03:26:41;99775.88;;;22.03;57.76
18527;BME280;9393;42.158;24.748;2022-09-09T03:29:50;99785.09;;;21.94;58.26
18527;BME280;9393;42.158;24.748;2022-09-09T03:32:58;99772.78;;;22.20;57.46
18527;BME280;9393;42.158;24.748;2022-09-09T03:36:06;99786.00;;;22.33;58.02
18527;BME280;9393;42.158;24.748;2022-09-09T03:39:10;99796.38;;;22.41;57.74
18527;BME280;9393;42.158;24.748;2022-09-09T03:42:16;99794.13;;;22.38;58.07
18527;BME280;9393;42.158;24.748;2022-09-09T03:45:24;99795.13;;;22.43;57.86
18527;BME280;9393;42.158;24.748;2022-09-09T03:48:29;99793.03;;;22.07;59.58
18527;BME280;9393;42.158;24.748;2022-09-09T03:51:33;99790.06;;;21.64;60.83
18527;BME280;9393;42.158;24.748;2022-09-09T03:54:40;99785.59;;;21.45;61.56
18527;BME280;9393;42.158;24.748;2022-09-09T03:57:45;99794.97;;;21.35;61.89
18527;BME280;9393;42.158;24.748;2022-09-09T04:00:53;99787.19;;;21.59;60.68
18527;BME280;9393;42.158;24.748;2022-09-09T04:03:58;99773.56;;;21.43;61.25
18527;BME280;9393;42.158;24.748;2022-09-09T04:07:03;99789.66;;;21.35;61.66
18527;BME280;9393;42.158;24.748;2022-09-09T04:10:08;99788.63;;;21.75;60.26
18527;BME280;9393;42.158;24.748;2022-09-09T04:13:13;99791.41;;;22.00;59.34
18527;BME280;9393;42.158;24.748;2022-09-09T04:16:18;99790.00;;;21.84;60.25
18527;BME280;9393;42.158;24.748;2022-09-09T04:19:23;99790.63;;;21.99;59.88
18527;BME280;9393;42.158;24.748;2022-09-09T04:22:27;99780.72;;;22.26;58.69
18527;BME280;9393;42.158;24.748;2022-09-09T04:25:31;99773.16;;;22.23;59.04
18527;BME280;9393;42.158;24.748;2022-09-09T04:28:36;99776.69;;;22.04;60.15
18527;BME280;9393;42.158;24.748;2022-09-09T04:31:46;99775.34;;;22.33;58.99
18527;BME280;9393;42.158;24.748;2022-09-09T04:34:51;99785.47;;;22.04;60.34
18527;BME280;9393;42.158;24.748;2022-09-09T04:37:54;99785.84;;;22.14;59.61
18527;BME280;9393;42.158;24.748;2022-09-09T04:40:58;99789.59;;;21.94;61.14
18527;BME280;9393;42.158;24.748;2022-09-09T04:44:01;99788.78;;;21.87;61.10
18527;BME280;9393;42.158;24.748;2022-09-09T04:47:06;99794.31;;;21.92;60.99
18527;BME280;9393;42.158;24.748;2022-09-09T04:50:11;99805.41;;;21.30;63.21
18527;BME280;9393;42.158;24.748;2022-09-09T04:53:15;99814.91;;;21.96;60.73
18527;BME280;9393;42.158;24.748;2022-09-09T04:56:19;99805.75;;;21.92;60.66
18527;BME280;9393;42.158;24.748;2022-09-09T04:59:29;99816.13;;;21.87;60.80
18527;BME280;9393;42.158;24.748;2022-09-09T05:02:37;99822.84;;;22.16;59.59
18527;BME280;9393;42.158;24.748;2022-09-09T05:05:42;99806.38;;;21.68;61.09
18527;BME280;9393;42.158;24.748;2022-09-09T05:08:46;99819.38;;;22.09;59.66
18527;BME280;9393;42.158;24.748;2022-09-09T05:11:52;99814.91;;;22.03;60.09
18527;BME280;9393;42.158;24.748;2022-09-09T05:15:01;99814.91;;;21.96;59.71
18527;BME280;9393;42.158;24.748;2022-09-09T05:18:05;99817.78;;;21.95;59.45
18527;BME280;9393;42.158;24.748;2022-09-09T05:21:10;99809.41;;;22.49;57.77
18527;BME280;9393;42.158;24.748;2022-09-09T05:24:14;99806.34;;;22.45;58.28
18527;BME280;9393;42.158;24.748;2022-09-09T05:27:18;99802.50;;;22.79;57.10
18527;BME280;9393;42.158;24.748;2022-09-09T05:30:23;99812.47;;;22.90;56.86
18527;BME280;9393;42.158;24.748;2022-09-09T05:33:28;99806.63;;;22.82;57.19
18527;BME280;9393;42.158;24.748;2022-09-09T05:36:33;99813.28;;;22.91;56.61
18527;BME280;9393;42.158;24.748;2022-09-09T05:39:36;99801.56;;;23.30;55.31
18527;BME280;9393;42.158;24.748;2022-09-09T05:42:40;99812.50;;;23.46;55.48
18527;BME280;9393;42.158;24.748;2022-09-09T05:45:43;99811.03;;;23.69;54.67
18527;BME280;9393;42.158;24.748;2022-09-09T05:48:50;99811.41;;;23.72;54.97
18527;BME280;9393;42.158;24.748;2022-09-09T05:51:57;99809.69;;;24.02;53.66
18527;BME280;9393;42.158;24.748;2022-09-09T05:55:00;99806.78;;;23.86;53.96
18527;BME280;9393;42.158;24.748;2022-09-09T05:58:06;99806.84;;;23.97;53.16
18527;BME280;9393;42.158;24.748;2022-09-09T06:01:11;99808.53;;;24.10;52.98
18527;BME280;9393;42.158;24.748;2022-09-09T06:04:16;99806.41;;;24.00;53.24
18527;BME280;9393;42.158;24.748;2022-09-09T06:07:21;99797.19;;;24.03;52.97
18527;BME280;9393;42.158;24.748;2022-09-09T06:10:24;99784.66;;;23.85;53.15
18527;BME280;9393;42.158;24.748;2022-09-09T06:13:28;99786.03;;;24.42;51.79
18527;BME280;9393;42.158;24.748;2022-09-09T06:16:32;99788.88;;;24.59;51.01
18527;BME280;9393;42.158;24.748;2022-09-09T06:19:36;99788.47;;;24.74;50.43
18527;BME280;9393;42.158;24.748;2022-09-09T06:22:42;99782.88;;;24.93;49.84
18527;BME280;9393;42.158;24.748;2022-09-09T06:25:48;99782.19;;;24.38;51.05
18527;BME280;9393;42.158;24.748;2022-09-09T06:28:54;99781.41;;;25.09;49.65
18527;BME280;9393;42.158;24.748;2022-09-09T06:31:59;99776.53;;;25.18;49.63
18527;BME280;9393;42.158;24.748;2022-09-09T06:35:03;99794.81;;;25.55;48.87
18527;BME280;9393;42.158;24.748;2022-09-09T06:38:07;99801.06;;;25.73;48.02
18527;BME280;9393;42.158;24.748;2022-09-09T06:41:13;99810.13;;;25.83;48.25
18527;BME280;9393;42.158;24.748;2022-09-09T06:44:19;99804.22;;;25.58;48.65
18527;BME280;9393;42.158;24.748;2022-09-09T06:47:22;99798.97;;;25.63;48.53
18527;BME280;9393;42.158;24.748;2022-09-09T06:50:27;99804.75;;;25.37;49.05
18527;BME280;9393;42.158;24.748;2022-09-09T06:53:33;99808.44;;;26.17;47.93
18527;BME280;9393;42.158;24.748;2022-09-09T06:56:38;99801.81;;;26.08;47.63
18527;BME280;9393;42.158;24.748;2022-09-09T06:59:50;99811.06;;;25.54;49.29
18527;BME280;9393;42.158;24.748;2022-09-09T07:02:54;99809.09;;;26.36;47.48
18527;BME280;9393;42.158;24.748;2022-09-09T07:05:57;99807.28;;;26.25;47.83
18527;BME280;9393;42.158;24.748;2022-09-09T07:09:05;99804.66;;;26.70;46.46
18527;BME280;9393;42.158;24.748;2022-09-09T07:12:09;99801.28;;;27.02;45.73
18527;BME280;9393;42.158;24.748;2022-09-09T07:15:17;99801.88;;;26.93;45.74
18527;BME280;9393;42.158;24.748;2022-09-09T07:18:21;99797.94;;;26.67;46.15
18527;BME280;9393;42.158;24.748;2022-09-09T07:21:26;99805.53;;;27.03;45.52
18527;BME280;9393;42.158;24.748;2022-09-09T07:24:31;99807.84;;;27.28;45.29
18527;BME280;9393;42.158;24.748;2022-09-09T07:27:34;99804.84;;;27.25;45.64
18527;BME280;9393;42.158;24.748;2022-09-09T07:30:39;99804.84;;;27.58;45.24
18527;BME280;9393;42.158;24.748;2022-09-09T07:33:44;99804.69;;;27.86;43.96
18527;BME280;9393;42.158;24.748;2022-09-09T07:36:48;99791.59;;;27.51;44.23
18527;BME280;9393;42.158;24.748;2022-09-09T07:39:54;99801.38;;;27.96;43.78
18527;BME280;9393;42.158;24.748;2022-09-09T07:42:58;99797.25;;;28.32;43.36
18527;BME280;9393;42.158;24.748;2022-09-09T07:46:02;99790.75;;;27.84;43.88
18527;BME280;9393;42.158;24.748;2022-09-09T07:49:06;99792.91;;;28.52;42.51
18527;BME280;9393;42.158;24.748;2022-09-09T07:52:09;99793.03;;;28.89;42.13
18527;BME280;9393;42.158;24.748;2022-09-09T07:55:22;99786.59;;;28.85;41.56
18527;BME280;9393;42.158;24.748;2022-09-09T07:58:27;99789.91;;;28.97;41.77
18527;BME280;9393;42.158;24.748;2022-09-09T08:01:34;99781.09;;;29.02;40.81
18527;BME280;9393;42.158;24.748;2022-09-09T08:04:42;99784.34;;;28.77;41.41
18527;BME280;9393;42.158;24.748;2022-09-09T08:07:46;99775.75;;;28.75;41.84
18527;BME280;9393;42.158;24.748;2022-09-09T08:10:51;99778.63;;;29.00;41.26
18527;BME280;9393;42.158;24.748;2022-09-09T08:13:55;99769.59;;;29.43;39.70
18527;BME280;9393;42.158;24.748;2022-09-09T08:17:04;99774.22;;;29.21;39.96
18527;BME280;9393;42.158;24.748;2022-09-09T08:20:08;99769.06;;;28.78;41.23
18527;BME280;9393;42.158;24.748;2022-09-09T08:23:13;99771.25;;;28.86;40.85
18527;BME280;9393;42.158;24.748;2022-09-09T08:26:20;99767.47;;;29.14;39.96
18527;BME280;9393;42.158;24.748;2022-09-09T08:29:25;99762.59;;;29.37;39.80
18527;BME280;9393;42.158;24.748;2022-09-09T08:32:31;99754.75;;;29.83;39.04
18527;BME280;9393;42.158;24.748;2022-09-09T08:35:34;99757.81;;;30.01;38.55
18527;BME280;9393;42.158;24.748;2022-09-09T08:38:38;99758.47;;;29.72;40.19
18527;BME280;9393;42.158;24.748;2022-09-09T08:42:10;99750.44;;;29.35;39.94
18527;BME280;9393;42.158;24.748;2022-09-09T08:45:31;99750.38;;;28.66;41.01
18527;BME280;9393;42.158;24.748;2022-09-09T08:48:53;99758.34;;;29.15;39.86
18527;BME280;9393;42.158;24.748;2022-09-09T08:52:00;99747.94;;;29.23;39.50
18527;BME280;9393;42.158;24.748;2022-09-09T08:55:15;99746.41;;;29.00;39.96
18527;BME280;9393;42.158;24.748;2022-09-09T08:58:26;99743.78;;;29.37;39.32
18527;BME280;9393;42.158;24.748;2022-09-09T09:01:52;99747.22;;;29.80;38.97
18527;BME280;9393;42.158;24.748;2022-09-09T09:05:17;99748.94;;;29.49;38.86
18527;BME280;9393;42.158;24.748;2022-09-09T09:08:27;99742.47;;;29.92;38.47
18527;BME280;9393;42.158;24.748;2022-09-09T09:11:36;99745.28;;;30.32;37.95
18527;BME280;9393;42.158;24.748;2022-09-09T09:14:43;99738.38;;;30.82;36.98
18527;BME280;9393;42.158;24.748;2022-09-09T09:17:48;99731.50;;;30.08;38.38
18527;BME280;9393;42.158;24.748;2022-09-09T09:20:58;99732.69;;;30.63;37.47
18527;BME280;9393;42.158;24.748;2022-09-09T09:24:14;99726.53;;;30.58;37.55
18527;BME280;9393;42.158;24.748;2022-09-09T09:27:31;99711.16;;;30.73;37.43
18527;BME280;9393;42.158;24.748;2022-09-09T09:30:39;99699.34;;;30.74;37.15
18527;BME280;9393;42.158;24.748;2022-09-09T09:33:47;99711.72;;;30.70;37.25
18527;BME280;9393;42.158;24.748;2022-09-09T09:36:55;99705.53;;;31.00;37.28
18527;BME280;9393;42.158;24.748;2022-09-09T09:40:10;99700.13;;;31.20;36.38
18527;BME280;9393;42.158;24.748;2022-09-09T09:43:20;99693.34;;;31.33;35.81
18527;BME280;9393;42.158;24.748;2022-09-09T09:46:26;99692.88;;;30.85;37.57
18527;BME280;9393;42.158;24.748;2022-09-09T09:49:38;99692.31;;;31.19;36.55
18527;BME280;9393;42.158;24.748;2022-09-09T09:52:42;99683.94;;;31.25;36.57
18527;BME280;9393;42.158;24.748;2022-09-09T09:55:59;99675.94;;;31.79;36.14
18527;BME280;9393;42.158;24.748;2022-09-09T09:59:04;99673.84;;;31.71;35.77
18527;BME280;9393;42.158;24.748;2022-09-09T10:02:37;99675.88;;;31.94;35.71
18527;BME280;9393;42.158;24.748;2022-09-09T10:05:45;99668.59;;;31.95;35.45
18527;BME280;9393;42.158;24.748;2022-09-09T10:08:50;99661.50;;;31.45;36.13
18527;BME280;9393;42.158;24.748;2022-09-09T10:11:59;99656.84;;;31.66;36.29
18527;BME280;9393;42.158;24.748;2022-09-09T10:15:18;99644.56;;;31.98;35.53
18527;BME280;9393;42.158;24.748;2022-09-09T10:18:39;99646.66;;;31.58;36.55
18527;BME280;9393;42.158;24.748;2022-09-09T10:21:55;99639.50;;;31.23;37.68
18527;BME280;9393;42.158;24.748;2022-09-09T10:25:35;99643.31;;;31.81;36.69
18527;BME280;9393;42.158;24.748;2022-09-09T10:28:55;99648.03;;;32.09;36.18
18527;BME280;9393;42.158;24.748;2022-09-09T10:32:11;99648.31;;;32.02;36.82
18527;BME280;9393;42.158;24.748;2022-09-09T10:35:29;99646.88;;;31.71;36.58
18527;BME280;9393;42.158;24.748;2022-09-09T10:38:39;99634.41;;;31.85;36.25
18527;BME280;9393;42.158;24.748;2022-09-09T10:41:49;99652.78;;;32.22;35.99
18527;BME280;9393;42.158;24.748;2022-09-09T10:45:07;99643.94;;;32.17;35.78
18527;BME280;9393;42.158;24.748;2022-09-09T10:48:50;99642.00;;;32.22;36.07
18527;BME280;9393;42.158;24.748;2022-09-09T10:52:04;99633.94;;;32.17;36.16
18527;BME280;9393;42.158;24.748;2022-09-09T10:55:13;99630.88;;;32.68;35.30
18527;BME280;9393;42.158;24.748;2022-09-09T10:58:21;99625.41;;;32.39;35.81
18527;BME280;9393;42.158;24.748;2022-09-09T11:01:31;99626.09;;;32.54;36.27
18527;BME280;9393;42.158;24.748;2022-09-09T11:04:40;99623.41;;;32.83;35.80
18527;BME280;9393;42.158;24.748;2022-09-09T11:07:49;99613.88;;;32.62;35.93
18527;BME280;9393;42.158;24.748;2022-09-09T11:10:58;99616.88;;;32.61;35.99
18527;BME280;9393;42.158;24.748;2022-09-09T11:14:10;99609.50;;;32.71;35.88
18527;BME280;9393;42.158;24.748;2022-09-09T11:17:18;99606.34;;;32.88;35.30
18527;BME280;9393;42.158;24.748;2022-09-09T11:20:22;99604.88;;;32.43;35.70
18527;BME280;9393;42.158;24.748;2022-09-09T11:23:36;99600.78;;;32.17;36.26
18527;BME280;9393;42.158;24.748;2022-09-09T11:26:46;99596.19;;;32.46;35.89
18527;BME280;9393;42.158;24.748;2022-09-09T11:30:15;99586.47;;;32.45;35.89
18527;BME280;9393;42.158;24.748;2022-09-09T11:33:55;99581.56;;;32.23;35.88
18527;BME280;9393;42.158;24.748;2022-09-09T11:37:08;99572.56;;;32.33;36.16
18527;BME280;9393;42.158;24.748;2022-09-09T11:40:19;99576.38;;;32.55;36.10
18527;BME280;9393;42.158;24.748;2022-09-09T11:43:28;99577.19;;;32.61;35.49
18527;BME280;9393;42.158;24.748;2022-09-09T11:46:36;99577.75;;;32.24;36.24
18527;BME280;9393;42.158;24.748;2022-09-09T11:49:41;99578.47;;;32.06;36.25
18527;BME280;9393;42.158;24.748;2022-09-09T11:52:47;99577.94;;;31.99;36.21
18527;BME280;9393;42.158;24.748;2022-09-09T11:56:08;99565.75;;;32.40;36.30
18527;BME280;9393;42.158;24.748;2022-09-09T11:59:20;99562.25;;;32.01;36.67
18527;BME280;9393;42.158;24.748;2022-09-09T12:02:26;99559.38;;;31.43;37.26
18527;BME280;9393;42.158;24.748;2022-09-09T12:05:37;99548.22;;;31.65;37.30
18527;BME280;9393;42.158;24.748;2022-09-09T12:08:44;99549.00;;;31.71;36.92
18527;BME280;9393;42.158;24.748;2022-09-09T12:11:51;99540.63;;;32.11;36.35
18527;BME280;9393;42.158;24.748;2022-09-09T12:14:57;99536.41;;;31.95;37.26
18527;BME280;9393;42.158;24.748;2022-09-09T12:18:01;99534.38;;;32.44;36.37
18527;BME280;9393;42.158;24.748;2022-09-09T12:21:10;99528.19;;;31.27;37.41
18527;BME280;9393;42.158;24.748;2022-09-09T12:24:25;99526.72;;;31.50;37.38
18527;BME280;9393;42.158;24.748;2022-09-09T12:27:35;99519.31;;;31.27;37.99
18527;BME280;9393;42.158;24.748;2022-09-09T12:30:51;99523.19;;;31.00;38.77
18527;BME280;9393;42.158;24.748;2022-09-09T12:34:06;99516.94;;;31.15;38.19
18527;BME280;9393;42.158;24.748;2022-09-09T12:37:24;99517.72;;;31.21;37.98
18527;BME280;9393;42.158;24.748;2022-09-09T12:40:30;99512.00;;;31.27;38.24
18527;BME280;9393;42.158;24.748;2022-09-09T12:43:38;99519.38;;;31.12;38.44
18527;BME280;9393;42.158;24.748;2022-09-09T12:46:43;99509.91;;;31.19;38.30
18527;BME280;9393;42.158;24.748;2022-09-09T12:49:49;99500.84;;;31.00;39.00
18527;BME280;9393;42.158;24.748;2022-09-09T12:52:54;99493.56;;;30.90;38.77
18527;BME280;9393;42.158;24.748;2022-09-09T12:56:00;99497.63;;;31.03;38.96
18527;BME280;9393;42.158;24.748;2022-09-09T12:59:23;99498.88;;;31.16;39.45
18527;BME280;9393;42.158;24.748;2022-09-09T13:02:26;99490.75;;;31.70;38.18
18527;BME280;9393;42.158;24.748;2022-09-09T13:05:36;99482.34;;;31.76;38.06
18527;BME280;9393;42.158;24.748;2022-09-09T13:08:40;99480.13;;;31.83;37.95
18527;BME280;9393;42.158;24.748;2022-09-09T13:11:47;99487.22;;;31.74;38.29
18527;BME280;9393;42.158;24.748;2022-09-09T13:14:54;99481.78;;;31.79;37.78
18527;BME280;9393;42.158;24.748;2022-09-09T13:18:02;99469.06;;;31.51;38.17
18527;BME280;9393;42.158;24.748;2022-09-09T13:21:08;99467.63;;;31.64;38.48
18527;BME280;9393;42.158;24.748;2022-09-09T13:24:26;99462.56;;;31.52;38.12
18527;BME280;9393;42.158;24.748;2022-09-09T13:27:33;99468.69;;;31.19;39.11
18527;BME280;9393;42.158;24.748;2022-09-09T13:30:41;99463.13;;;31.00;39.41
18527;BME280;9393;42.158;24.748;2022-09-09T13:33:46;99463.81;;;31.21;38.77
18527;BME280;9393;42.158;24.748;2022-09-09T13:36:49;99456.03;;;31.14;39.37
18527;BME280;9393;42.158;24.748;2022-09-09T13:40:00;99453.72;;;30.97;39.48
18527;BME280;9393;42.158;24.748;2022-09-09T13:43:04;99454.78;;;31.01;39.04
18527;BME280;9393;42.158;24.748;2022-09-09T13:46:25;99437.59;;;31.36;39.03
18527;BME280;9393;42.158;24.748;2022-09-09T13:49:32;99436.97;;;31.49;38.26
18527;BME280;9393;42.158;24.748;2022-09-09T13:52:35;99437.66;;;31.26;39.05
18527;BME280;9393;42.158;24.748;2022-09-09T13:55:38;99432.00;;;31.28;39.38
18527;BME280;9393;42.158;24.748;2022-09-09T13:58:42;99431.66;;;31.34;39.35
18527;BME280;9393;42.158;24.748;2022-09-09T14:01:47;99433.28;;;30.86;39.43
18527;BME280;9393;42.158;24.748;2022-09-09T14:04:50;99431.44;;;31.31;39.05
18527;BME280;9393;42.158;24.748;2022-09-09T14:07:57;99435.97;;;31.40;39.13
18527;BME280;9393;42.158;24.748;2022-09-09T14:11:02;99428.19;;;31.34;38.85
18527;BME280;9393;42.158;24.748;2022-09-09T14:14:11;99433.47;;;31.05;39.70
18527;BME280;9393;42.158;24.748;2022-09-09T14:17:22;99426.28;;;30.85;39.89
18527;BME280;9393;42.158;24.748;2022-09-09T14:20:26;99424.63;;;30.89;39.52
18527;BME280;9393;42.158;24.748;2022-09-09T14:23:30;99427.13;;;30.81;39.58
18527;BME280;9393;42.158;24.748;2022-09-09T14:26:34;99425.06;;;30.58;40.20
18527;BME280;9393;42.158;24.748;2022-09-09T14:29:37;99427.00;;;30.37;40.82
18527;BME280;9393;42.158;24.748;2022-09-09T14:32:42;99422.16;;;30.44;40.91
18527;BME280;9393;42.158;24.748;2022-09-09T14:35:45;99407.84;;;30.53;41.42
18527;BME280;9393;42.158;24.748;2022-09-09T14:38:48;99414.31;;;30.58;40.79
18527;BME280;9393;42.158;24.748;2022-09-09T14:41:52;99423.75;;;30.35;41.56
18527;BME280;9393;42.158;24.748;2022-09-09T14:44:55;99425.63;;;30.44;41.84
18527;BME280;9393;42.158;24.748;2022-09-09T14:48:00;99414.06;;;30.39;41.05
18527;BME280;9393;42.158;24.748;2022-09-09T14:51:07;99406.00;;;30.44;40.90
18527;BME280;9393;42.158;24.748;2022-09-09T14:54:11;99399.00;;;30.33;41.24
18527;BME280;9393;42.158;24.748;2022-09-09T14:57:14;99407.09;;;30.43;40.65
18527;BME280;9393;42.158;24.748;2022-09-09T15:00:17;99407.09;;;30.43;40.64
18527;BME280;9393;42.158;24.748;2022-09-09T15:03:22;99404.00;;;30.70;40.42
18527;BME280;9393;42.158;24.748;2022-09-09T15:06:28;99403.28;;;30.49;41.23
18527;BME280;9393;42.158;24.748;2022-09-09T15:09:32;99406.91;;;29.89;42.23
18527;BME280;9393;42.158;24.748;2022-09-09T15:12:35;99406.66;;;29.85;42.30
18527;BME280;9393;42.158;24.748;2022-09-09T15:15:40;99408.50;;;29.54;43.30
18527;BME280;9393;42.158;24.748;2022-09-09T15:18:45;99407.69;;;29.74;42.52
18527;BME280;9393;42.158;24.748;2022-09-09T15:21:49;99406.91;;;29.89;42.47
18527;BME280;9393;42.158;24.748;2022-09-09T15:24:52;99404.47;;;30.02;42.05
18527;BME280;9393;42.158;24.748;2022-09-09T15:27:55;99402.59;;;29.88;42.02
18527;BME280;9393;42.158;24.748;2022-09-09T15:30:58;99397.75;;;29.90;42.29
18527;BME280;9393;42.158;24.748;2022-09-09T15:34:09;99391.84;;;29.78;42.36
18527;BME280;9393;42.158;24.748;2022-09-09T15:37:13;99399.06;;;29.72;42.54
18527;BME280;9393;42.158;24.748;2022-09-09T15:40:16;99395.59;;;29.46;43.30
18527;BME280;9393;42.158;24.748;2022-09-09T15:43:19;99393.41;;;29.13;43.28
18527;BME280;9393;42.158;24.748;2022-09-09T15:46:26;99396.09;;;29.13;43.84
18527;BME280;9393;42.158;24.748;2022-09-09T15:49:31;99385.38;;;29.38;43.63
18527;BME280;9393;42.158;24.748;2022-09-09T15:52:34;99381.88;;;29.38;43.85
18527;BME280;9393;42.158;24.748;2022-09-09T15:55:37;99388.00;;;29.18;44.08
18527;BME280;9393;42.158;24.748;2022-09-09T15:58:40;99398.47;;;29.04;44.43
18527;BME280;9393;42.158;24.748;2022-09-09T16:01:45;99390.94;;;29.01;43.85
18527;BME280;9393;42.158;24.748;2022-09-09T16:04:49;99389.59;;;28.99;44.37
18527;BME280;9393;42.158;24.748;2022-09-09T16:07:53;99389.84;;;28.97;44.49
18527;BME280;9393;42.158;24.748;2022-09-09T16:10:56;99392.25;;;28.94;44.47
18527;BME280;9393;42.158;24.748;2022-09-09T16:13:59;99398.66;;;28.83;45.03
18527;BME280;9393;42.158;24.748;2022-09-09T16:17:04;99403.47;;;28.76;45.19
18527;BME280;9393;42.158;24.748;2022-09-09T16:20:09;99402.41;;;28.77;44.97
18527;BME280;9393;42.158;24.748;2022-09-09T16:23:13;99401.31;;;28.68;45.31
18527;BME280;9393;42.158;24.748;2022-09-09T16:26:17;99407.00;;;28.86;45.13
18527;BME280;9393;42.158;24.748;2022-09-09T16:29:22;99406.44;;;28.79;45.10
18527;BME280;9393;42.158;24.748;2022-09-09T16:32:25;99399.66;;;28.62;45.63
18527;BME280;9393;42.158;24.748;2022-09-09T16:35:30;99404.19;;;28.51;45.74
18527;BME280;9393;42.158;24.748;2022-09-09T16:38:33;99398.81;;;28.51;45.87